createdAt,value
2023-05-10T00:01:34.375Z,4.03
2023-05-10T00:04:01.373Z,4.53
2023-05-10T00:06:28.947Z,3.38
2023-05-10T00:08:55.798Z,3.50
2023-05-10T00:11:23.342Z,3.85
2023-05-10T00:13:50.506Z,5.47
2023-05-10T00:16:17.320Z,4.45
2023-05-10T00:18:44.169Z,4.68
2023-05-10T00:21:10.948Z,4.05
2023-05-10T00:23:38.451Z,3.85
2023-05-10T00:26:05.398Z,3.13
2023-05-10T00:28:32.234Z,3.42
2023-05-10T00:30:59.007Z,3.95
2023-05-10T00:33:25.883Z,4.57
2023-05-10T00:35:52.734Z,4.28
2023-05-10T00:38:19.562Z,4.28
2023-05-10T00:40:46.643Z,4.05
2023-05-10T00:43:13.476Z,3.60
2023-05-10T00:45:41.268Z,3.22
2023-05-10T00:48:08.262Z,4.82
2023-05-10T00:50:35.100Z,6.63
2023-05-10T00:53:02.329Z,4.65
2023-05-10T00:55:29.399Z,4.00
2023-05-10T00:57:56.828Z,4.30
2023-05-10T01:00:23.897Z,6.53
2023-05-10T01:02:51.386Z,8.13
2023-05-10T01:05:18.324Z,4.40
2023-05-10T01:07:45.276Z,5.35
2023-05-10T01:10:12.467Z,4.93
2023-05-10T01:12:41.047Z,5.80
2023-05-10T01:15:08.794Z,5.65
2023-05-10T01:17:39.443Z,4.70
2023-05-10T01:20:09.011Z,6.85
2023-05-10T01:22:41.991Z,5.78
2023-05-10T01:25:08.840Z,6.43
2023-05-10T01:27:54.624Z,6.82
2023-05-10T01:30:40.200Z,5.65
2023-05-10T01:33:16.397Z,9.10
2023-05-10T01:35:46.658Z,6.55
2023-05-10T01:38:16.226Z,6.13
2023-05-10T01:41:08.050Z,7.53
2023-05-10T01:43:42.290Z,6.32
2023-05-10T01:46:12.004Z,9.63
2023-05-10T01:48:41.340Z,7.00
2023-05-10T01:51:09.412Z,7.28
2023-05-10T01:53:38.473Z,7.03
2023-05-10T01:56:06.217Z,7.28
2023-05-10T01:58:33.753Z,7.45
2023-05-10T02:01:02.540Z,8.50
2023-05-10T02:03:30.314Z,8.75
2023-05-10T02:05:57.440Z,7.78
2023-05-10T02:08:25.080Z,9.88
2023-05-10T02:10:53.370Z,6.60
2023-05-10T02:13:20.549Z,10.80
2023-05-10T02:15:51.042Z,10.10
2023-05-10T02:18:19.077Z,7.03
2023-05-10T02:20:47.235Z,8.27
2023-05-10T02:23:15.041Z,7.88
2023-05-10T02:25:42.542Z,8.88
2023-05-10T02:28:09.819Z,9.45
2023-05-10T02:30:36.902Z,7.80
2023-05-10T02:33:05.321Z,8.63
2023-05-10T02:35:34.463Z,7.88
2023-05-10T02:38:02.066Z,11.38
2023-05-10T02:40:29.450Z,9.65
2023-05-10T02:42:57.355Z,11.38
2023-05-10T02:45:25.890Z,9.75
2023-05-10T02:47:53.116Z,9.85
2023-05-10T02:50:21.595Z,9.95
2023-05-10T02:52:50.770Z,7.88
2023-05-10T02:55:19.072Z,8.18
2023-05-10T02:58:06.188Z,9.50
2023-05-10T03:00:33.260Z,9.43
2023-05-10T03:03:00.421Z,11.20
2023-05-10T03:05:27.368Z,9.65
2023-05-10T03:07:54.867Z,12.43
2023-05-10T03:10:25.483Z,8.90
2023-05-10T03:12:55.271Z,9.77
2023-05-10T03:15:28.003Z,7.15
2023-05-10T03:18:13.293Z,14.10
2023-05-10T03:20:42.788Z,10.07
2023-05-10T03:23:14.777Z,12.02
2023-05-10T03:25:42.234Z,9.80
2023-05-10T03:28:09.797Z,9.27
2023-05-10T03:30:37.606Z,11.57
2023-05-10T03:33:07.558Z,11.55
2023-05-10T03:35:34.514Z,11.98
2023-05-10T03:38:01.490Z,9.73
2023-05-10T03:40:32.986Z,12.02
2023-05-10T03:45:26.537Z,13.45
2023-05-10T03:47:53.526Z,10.60
2023-05-10T03:50:20.610Z,11.27
2023-05-10T03:52:47.680Z,14.35
2023-05-10T03:55:14.602Z,12.30
2023-05-10T03:57:41.787Z,11.98
2023-05-10T04:00:09.225Z,10.60
2023-05-10T04:02:36.120Z,12.85
2023-05-10T04:05:03.556Z,9.20
2023-05-10T04:07:30.441Z,14.80
2023-05-10T04:09:57.256Z,9.73
2023-05-10T04:12:24.062Z,7.53
2023-05-10T04:14:50.938Z,10.77
2023-05-10T04:17:17.734Z,11.13
2023-05-10T04:19:44.514Z,9.15
2023-05-10T04:22:11.328Z,11.35
2023-05-10T04:24:38.106Z,9.18
2023-05-10T04:27:04.936Z,9.38
2023-05-10T04:29:32.029Z,9.07
2023-05-10T04:31:58.835Z,10.38
2023-05-10T04:34:25.742Z,6.90
2023-05-10T04:36:52.580Z,9.93
2023-05-10T04:39:19.334Z,10.10
2023-05-10T04:41:46.133Z,9.23
2023-05-10T04:44:12.920Z,8.55
2023-05-10T04:46:39.961Z,11.30
2023-05-10T04:49:06.817Z,10.55
2023-05-10T04:51:33.660Z,13.25
2023-05-10T04:54:06.210Z,9.75
2023-05-10T04:56:33.906Z,8.15
2023-05-10T04:59:00.707Z,13.00
2023-05-10T05:01:27.633Z,11.40
2023-05-10T05:03:54.610Z,11.55
2023-05-10T05:06:25.895Z,12.02
2023-05-10T05:08:52.751Z,10.98
2023-05-10T05:11:19.576Z,12.18
2023-05-10T05:13:46.625Z,12.65
2023-05-10T05:16:13.491Z,15.98
2023-05-10T05:18:40.424Z,12.30
2023-05-10T05:21:20.038Z,14.40
2023-05-10T05:23:47.422Z,10.55
2023-05-10T05:26:14.194Z,13.73
2023-05-10T05:28:41.052Z,14.45
2023-05-10T05:31:11.230Z,15.68
2023-05-10T05:33:38.156Z,12.95
2023-05-10T05:36:05.935Z,12.93
2023-05-10T05:38:32.983Z,10.95
2023-05-10T05:40:59.784Z,16.67
2023-05-10T05:43:26.682Z,14.57
2023-05-10T05:45:54.635Z,12.95
2023-05-10T05:48:22.745Z,16.95
2023-05-10T05:50:49.549Z,17.13
2023-05-10T05:53:16.880Z,15.10
2023-05-10T05:55:56.334Z,18.00
2023-05-10T05:58:23.524Z,14.45
2023-05-10T06:00:50.846Z,15.50
2023-05-10T06:03:17.769Z,13.63
2023-05-10T06:05:44.850Z,14.77
2023-05-10T06:08:11.846Z,15.00
2023-05-10T06:10:38.768Z,17.92
2023-05-10T06:13:05.768Z,17.70
2023-05-10T06:15:33.675Z,14.93
2023-05-10T06:18:00.685Z,13.88
2023-05-10T06:20:27.666Z,13.18
2023-05-10T06:22:54.602Z,13.27
2023-05-10T06:25:21.581Z,17.75
2023-05-10T06:27:51.937Z,14.15
2023-05-10T06:30:20.490Z,15.05
2023-05-10T06:32:47.395Z,16.88
2023-05-10T06:35:14.285Z,12.82
2023-05-10T06:37:41.069Z,12.07
2023-05-10T06:40:08.449Z,17.60
2023-05-10T06:42:35.271Z,13.45
2023-05-10T06:45:02.131Z,15.48
2023-05-10T06:47:28.994Z,14.15
2023-05-10T06:49:56.789Z,17.55
2023-05-10T06:52:24.434Z,14.10
2023-05-10T06:54:51.424Z,16.48
2023-05-10T06:57:30.386Z,15.90
2023-05-10T06:59:58.876Z,16.40
2023-05-10T07:02:25.734Z,17.98
2023-05-10T07:04:53.151Z,12.32
2023-05-10T07:07:20.303Z,15.65
2023-05-10T07:09:47.323Z,16.65
2023-05-10T07:12:15.341Z,15.50
2023-05-10T07:14:43.162Z,15.00
2023-05-10T07:17:10.286Z,15.50
2023-05-10T07:19:37.246Z,15.80
2023-05-10T07:22:04.213Z,12.90
2023-05-10T07:24:32.340Z,14.55
2023-05-10T07:26:59.195Z,15.63
2023-05-10T07:29:26.274Z,17.58
2023-05-10T07:31:53.100Z,18.55
2023-05-10T07:34:20.012Z,15.32
2023-05-10T07:36:46.928Z,14.90
2023-05-10T07:39:21.207Z,14.57
2023-05-10T07:41:53.177Z,17.25
2023-05-10T07:44:21.357Z,16.80
2023-05-10T07:46:48.728Z,15.93
2023-05-10T07:49:15.764Z,15.57
2023-05-10T07:51:43.473Z,15.55
2023-05-10T07:54:10.465Z,17.42
2023-05-10T07:56:37.345Z,20.05
2023-05-10T07:59:09.248Z,14.65
2023-05-10T08:01:37.642Z,19.13
2023-05-10T08:04:04.562Z,19.63
2023-05-10T08:06:31.544Z,18.10
2023-05-10T08:08:58.547Z,16.38
2023-05-10T08:11:25.900Z,15.45
2023-05-10T08:13:52.976Z,14.18
2023-05-10T08:16:19.962Z,13.45
2023-05-10T08:18:48.121Z,13.68
2023-05-10T08:21:15.402Z,17.08
2023-05-10T08:23:42.416Z,13.40
2023-05-10T08:26:09.274Z,13.00
2023-05-10T08:28:36.194Z,13.18
2023-05-10T08:31:02.996Z,14.30
2023-05-10T08:33:29.822Z,12.90
2023-05-10T08:35:56.733Z,12.70
2023-05-10T08:38:23.539Z,11.70
2023-05-10T08:40:51.819Z,12.52
2023-05-10T08:43:19.298Z,13.32
2023-05-10T08:45:49.059Z,10.20
2023-05-10T08:48:16.399Z,11.38
2023-05-10T08:50:44.036Z,12.95
2023-05-10T08:53:12.176Z,14.68
2023-05-10T08:55:39.898Z,11.60
2023-05-10T08:58:07.392Z,10.35
2023-05-10T09:00:34.538Z,9.00
2023-05-10T09:03:01.925Z,14.45
2023-05-10T09:05:29.253Z,8.95
2023-05-10T09:07:56.122Z,13.00
2023-05-10T09:10:23.793Z,8.57
2023-05-10T09:12:51.114Z,7.47
2023-05-10T09:15:20.398Z,6.65
2023-05-10T09:17:47.428Z,8.65
2023-05-10T09:20:14.535Z,9.73
2023-05-10T09:22:41.877Z,9.45
2023-05-10T09:25:10.393Z,9.32
2023-05-10T09:27:37.414Z,7.85
2023-05-10T09:30:04.640Z,6.72
2023-05-10T09:32:47.557Z,6.72
2023-05-10T09:35:15.806Z,11.27
2023-05-10T09:37:44.090Z,7.22
2023-05-10T09:40:17.683Z,10.43
2023-05-10T09:42:52.332Z,6.53
2023-05-10T09:45:19.315Z,5.40
2023-05-10T09:47:46.981Z,8.32
2023-05-10T09:50:13.834Z,6.95
2023-05-10T09:52:48.092Z,6.32
2023-05-10T09:55:15.205Z,6.55
2023-05-10T09:57:42.248Z,9.00
2023-05-10T10:00:11.082Z,6.30
2023-05-10T10:02:38.063Z,7.45
2023-05-10T10:05:05.317Z,6.53
2023-05-10T10:07:32.683Z,7.72
2023-05-10T10:09:59.880Z,7.90
2023-05-10T10:12:26.735Z,6.97
2023-05-10T10:14:54.304Z,7.30
2023-05-10T10:17:21.247Z,9.93
2023-05-10T10:19:49.436Z,7.68
2023-05-10T10:22:16.543Z,7.38
2023-05-10T10:24:44.046Z,4.93
2023-05-10T10:27:21.907Z,6.20
2023-05-10T10:29:53.738Z,7.07
2023-05-10T10:32:29.032Z,8.35
2023-05-10T10:34:56.670Z,7.60
2023-05-10T10:37:23.512Z,6.07
2023-05-10T10:39:50.920Z,7.00
2023-05-10T10:42:37.689Z,5.07
2023-05-10T10:45:14.784Z,8.02
2023-05-10T10:47:44.201Z,7.82
2023-05-10T10:50:13.878Z,8.27
2023-05-10T10:52:41.815Z,8.88
2023-05-10T10:55:10.366Z,5.53
2023-05-10T10:57:50.775Z,5.63
2023-05-10T11:00:23.729Z,6.65
2023-05-10T11:03:00.877Z,7.93
2023-05-10T11:05:33.971Z,7.43
2023-05-10T11:08:01.690Z,7.00
2023-05-10T11:10:28.588Z,6.05
2023-05-10T11:13:02.139Z,7.65
2023-05-10T11:15:32.376Z,8.02
2023-05-10T11:17:59.392Z,4.97
2023-05-10T11:20:34.228Z,6.75
2023-05-10T11:23:12.694Z,4.10
2023-05-10T11:25:49.184Z,5.47
2023-05-10T11:28:17.695Z,7.03
2023-05-10T11:30:45.379Z,6.93
2023-05-10T11:33:16.435Z,5.80
2023-05-10T11:35:43.704Z,7.15
2023-05-10T11:38:11.155Z,8.23
2023-05-10T11:40:38.476Z,3.58
2023-05-10T11:43:06.629Z,4.55
2023-05-10T11:45:33.975Z,4.28
2023-05-10T11:48:00.971Z,6.07
2023-05-10T11:50:28.100Z,4.78
2023-05-10T11:52:55.859Z,4.68
2023-05-10T11:55:22.960Z,4.82
2023-05-10T11:57:53.061Z,5.18
2023-05-10T12:00:20.138Z,9.25
2023-05-10T12:02:47.444Z,7.35
2023-05-10T12:05:14.672Z,8.80
2023-05-10T12:07:41.526Z,5.25
2023-05-10T12:10:11.827Z,6.07
2023-05-10T12:12:42.974Z,5.68
2023-05-10T12:15:13.654Z,6.90
2023-05-10T12:17:43.460Z,6.88
2023-05-10T12:20:21.158Z,5.35
2023-05-10T12:25:14.939Z,5.07
2023-05-10T12:27:42.275Z,7.03
2023-05-10T12:43:08.455Z,3.08
2023-05-10T12:45:35.706Z,2.92
2023-05-10T12:48:02.572Z,1.98
2023-05-10T12:50:29.376Z,2.72
2023-05-10T12:52:56.262Z,4.25
2023-05-10T12:55:23.075Z,4.20
2023-05-10T12:57:49.856Z,3.53
2023-05-10T13:00:17.165Z,3.55
2023-05-10T13:02:44.166Z,3.40
2023-05-10T13:05:11.092Z,3.72
2023-05-10T13:07:37.919Z,5.53
2023-05-10T13:10:04.960Z,4.65
2023-05-10T13:12:31.722Z,4.85
2023-05-10T13:14:58.472Z,1.90
2023-05-10T13:17:26.562Z,2.65
2023-05-10T13:19:53.321Z,2.45
2023-05-10T13:22:28.758Z,4.32
2023-05-10T13:25:03.677Z,1.92
2023-05-10T13:27:30.436Z,3.08
2023-05-10T13:29:57.201Z,1.95
2023-05-10T13:32:24.003Z,3.15
2023-05-10T13:34:50.777Z,2.60
2023-05-10T13:37:17.585Z,2.65
2023-05-10T13:39:44.370Z,2.63
2023-05-10T13:42:11.148Z,2.80
2023-05-10T13:44:39.732Z,4.25
2023-05-10T13:47:06.736Z,3.15
2023-05-10T13:49:34.891Z,3.78
2023-05-10T13:52:07.850Z,5.68
2023-05-10T13:54:35.326Z,5.40
2023-05-10T13:57:02.120Z,2.70
2023-05-10T13:59:29.814Z,4.00
2023-05-10T14:01:56.634Z,6.40
2023-05-10T14:04:23.589Z,2.42
2023-05-10T14:06:50.401Z,3.78
2023-05-10T14:09:17.628Z,1.80
2023-05-10T14:11:45.947Z,2.47
2023-05-10T14:14:13.676Z,3.45
2023-05-10T14:16:44.277Z,2.25
2023-05-10T14:19:11.274Z,2.22
2023-05-10T14:21:38.249Z,3.67
2023-05-10T14:24:05.520Z,5.82
2023-05-10T14:26:34.729Z,4.55
2023-05-10T14:29:01.798Z,3.65
2023-05-10T14:31:28.725Z,2.85
2023-05-10T14:33:55.628Z,2.80
2023-05-10T14:36:22.420Z,4.57
2023-05-10T14:38:49.160Z,3.55
2023-05-10T14:41:18.382Z,4.25
2023-05-10T14:43:45.155Z,6.30
2023-05-10T14:46:12.200Z,2.55
2023-05-10T14:48:38.995Z,4.20
2023-05-10T14:51:06.038Z,6.07
2023-05-10T14:53:33.523Z,4.68
2023-05-10T14:56:02.197Z,5.20
2023-05-10T14:58:28.999Z,4.32
2023-05-10T15:00:55.834Z,4.03
2023-05-10T15:03:23.540Z,4.55
2023-05-10T15:05:50.980Z,3.50
2023-05-10T15:08:17.782Z,4.72
2023-05-10T15:10:44.524Z,4.03
2023-05-10T15:13:11.363Z,5.95
2023-05-10T15:15:38.224Z,5.47
2023-05-10T15:18:05.637Z,4.90
2023-05-10T15:20:32.601Z,3.40
2023-05-10T15:22:59.420Z,3.83
2023-05-10T15:27:54.382Z,6.22
2023-05-10T15:30:21.235Z,4.55
2023-05-10T15:32:48.108Z,3.08
2023-05-10T15:35:15.080Z,2.72
2023-05-10T15:37:41.963Z,5.32
2023-05-10T15:40:08.956Z,4.90
2023-05-10T15:42:36.215Z,3.53
2023-05-10T15:45:03.040Z,3.58
2023-05-10T15:47:30.575Z,3.67
2023-05-10T15:49:57.468Z,4.72
2023-05-10T15:52:24.391Z,5.22
2023-05-10T15:54:51.711Z,6.07
2023-05-10T15:57:18.545Z,4.97
2023-05-10T15:59:45.907Z,6.60
2023-05-10T16:02:12.899Z,10.52
2023-05-10T16:04:39.717Z,11.52
2023-05-10T16:07:06.622Z,9.15
2023-05-10T16:09:33.450Z,4.55
2023-05-10T16:12:00.352Z,6.95
2023-05-10T16:14:27.190Z,6.35
2023-05-10T16:16:54.094Z,5.20
2023-05-10T16:19:21.031Z,3.95
2023-05-10T16:21:47.876Z,4.75
2023-05-10T16:24:14.764Z,3.83
2023-05-10T16:26:41.664Z,3.85
2023-05-10T16:29:08.720Z,2.60
2023-05-10T16:31:35.674Z,3.70
2023-05-10T16:34:02.596Z,3.35
2023-05-10T16:36:29.627Z,3.08
2023-05-10T16:38:56.697Z,3.50
2023-05-10T16:41:23.566Z,3.63
2023-05-10T16:43:50.390Z,10.13
2023-05-10T16:46:17.226Z,7.65
2023-05-10T16:48:44.102Z,3.00
2023-05-10T16:51:10.913Z,3.90
2023-05-10T16:53:37.907Z,5.97
2023-05-10T16:56:04.825Z,3.63
2023-05-10T16:58:31.765Z,1.45
2023-05-10T17:00:58.725Z,4.03
2023-05-10T17:03:25.669Z,4.28
2023-05-10T17:05:52.572Z,1.98
2023-05-10T17:08:19.439Z,2.53
2023-05-10T17:10:46.629Z,5.97
2023-05-10T17:13:13.518Z,3.83
2023-05-10T17:15:40.376Z,3.42
2023-05-10T17:18:07.837Z,2.83
2023-05-10T17:20:34.696Z,3.55
2023-05-10T17:23:03.207Z,4.82
2023-05-10T17:25:30.050Z,3.65
2023-05-10T17:27:56.869Z,6.38
2023-05-10T17:30:26.481Z,3.40
2023-05-10T17:32:54.422Z,4.55
2023-05-10T17:35:21.526Z,4.82
2023-05-10T17:37:48.425Z,4.95
2023-05-10T17:40:15.393Z,6.63
2023-05-10T17:42:42.761Z,7.30
2023-05-10T17:45:09.987Z,6.15
2023-05-10T17:47:36.882Z,5.88
2023-05-10T17:50:04.206Z,5.20
2023-05-10T17:52:33.362Z,4.35
2023-05-10T17:55:00.415Z,4.88
2023-05-10T17:57:27.186Z,3.50
2023-05-10T17:59:53.970Z,6.40
2023-05-10T18:02:20.768Z,3.72
2023-05-10T18:04:49.492Z,3.17
2023-05-10T18:07:16.582Z,4.75
2023-05-10T18:09:43.578Z,4.82
2023-05-10T18:12:10.348Z,3.67
2023-05-10T18:14:40.926Z,6.00
2023-05-10T18:19:35.565Z,4.50
2023-05-10T18:22:02.747Z,4.47
2023-05-10T18:24:38.930Z,4.75
2023-05-10T18:27:08.023Z,4.07
2023-05-10T18:29:35.177Z,5.68
2023-05-10T18:32:01.955Z,2.53
2023-05-10T18:34:28.965Z,4.68
2023-05-10T18:36:56.401Z,1.08
2023-05-10T18:39:24.131Z,3.53
2023-05-10T18:41:50.989Z,2.08
2023-05-10T18:44:19.055Z,1.02
2023-05-10T18:46:46.470Z,1.88
2023-05-10T18:49:13.486Z,1.52
2023-05-10T18:51:40.509Z,2.05
2023-05-10T18:54:07.530Z,1.50
2023-05-10T18:56:34.422Z,3.42
2023-05-10T18:59:01.540Z,1.02
2023-05-10T19:01:28.336Z,1.75
2023-05-10T19:03:55.210Z,2.45
2023-05-10T19:06:21.975Z,2.63
2023-05-10T19:08:48.751Z,3.28
2023-05-10T19:11:15.808Z,4.43
2023-05-10T19:13:42.888Z,2.78
2023-05-10T19:16:13.468Z,1.90
2023-05-10T19:18:40.425Z,2.08
2023-05-10T19:21:09.725Z,2.08
2023-05-10T19:23:38.502Z,0.77
2023-05-10T19:26:05.749Z,2.35
2023-05-10T19:28:32.585Z,3.05
2023-05-10T19:30:59.475Z,3.33
2023-05-10T19:33:26.539Z,2.63
2023-05-10T19:35:53.475Z,2.58
2023-05-10T19:38:23.654Z,3.70
2023-05-10T19:40:51.005Z,1.33
2023-05-10T19:43:17.846Z,2.03
2023-05-10T19:45:44.708Z,2.90
2023-05-10T19:48:12.415Z,3.20
2023-05-10T19:50:39.305Z,4.13
2023-05-10T19:53:06.201Z,1.38
2023-05-10T19:55:33.060Z,3.58
2023-05-10T19:58:00.877Z,1.67
2023-05-10T20:00:27.914Z,1.40
2023-05-10T20:02:55.196Z,3.35
2023-05-10T20:05:22.131Z,5.93
2023-05-10T20:07:48.942Z,2.50
2023-05-10T20:10:16.522Z,2.42
2023-05-10T20:12:51.225Z,2.78
2023-05-10T20:15:21.928Z,3.72
2023-05-10T20:17:51.033Z,3.03
2023-05-10T20:20:18.367Z,1.90
2023-05-10T20:22:45.900Z,2.33
2023-05-10T20:25:13.063Z,3.70
2023-05-10T20:27:40.288Z,2.10
2023-05-10T20:30:07.580Z,2.53
2023-05-10T20:32:34.593Z,3.33
2023-05-10T20:35:01.636Z,2.33
2023-05-10T20:37:28.593Z,3.58
2023-05-10T20:39:55.488Z,4.30
2023-05-10T20:42:22.766Z,2.45
2023-05-10T20:44:49.972Z,2.88
2023-05-10T20:47:16.951Z,1.83
2023-05-10T20:49:44.011Z,2.00
2023-05-10T20:52:11.398Z,1.58
2023-05-10T20:54:38.248Z,4.32
2023-05-10T20:57:05.210Z,1.60
2023-05-10T20:59:31.964Z,2.30
2023-05-10T21:01:59.117Z,2.35
2023-05-10T21:04:26.125Z,2.55
2023-05-10T21:06:53.348Z,3.03
2023-05-10T21:09:20.199Z,1.77
2023-05-10T21:11:47.095Z,2.95
2023-05-10T21:14:13.892Z,1.95
2023-05-10T21:16:40.827Z,1.80
2023-05-10T21:19:07.778Z,1.42
2023-05-10T21:21:34.941Z,1.85
2023-05-10T21:24:01.808Z,1.63
2023-05-10T21:26:28.799Z,2.80
2023-05-10T21:28:55.742Z,1.95
2023-05-10T21:31:22.551Z,1.85
2023-05-10T21:33:49.398Z,1.50
2023-05-10T21:36:16.331Z,1.33
2023-05-10T21:38:44.582Z,3.85
2023-05-10T21:41:11.462Z,3.20
2023-05-10T21:43:38.464Z,3.15
2023-05-10T21:46:05.322Z,2.92
2023-05-10T21:48:32.138Z,1.63
2023-05-10T21:50:59.304Z,2.40
2023-05-10T21:53:26.071Z,1.88
2023-05-10T21:55:55.272Z,1.92
2023-05-10T21:58:22.603Z,3.67
2023-05-10T22:00:49.706Z,1.35
2023-05-10T22:03:16.723Z,2.72
2023-05-10T22:05:43.725Z,1.75
2023-05-10T22:08:10.486Z,3.90
2023-05-10T22:10:37.306Z,2.47
2023-05-10T22:13:04.091Z,3.20
2023-05-10T22:15:34.157Z,1.58
2023-05-10T22:18:02.604Z,1.15
2023-05-10T22:20:29.545Z,2.90
2023-05-10T22:22:56.496Z,2.33
2023-05-10T22:25:23.391Z,2.20
2023-05-10T22:27:50.230Z,2.30
2023-05-10T22:30:17.568Z,1.50
2023-05-10T22:32:44.929Z,3.17
2023-05-10T22:35:11.963Z,1.83
2023-05-10T22:37:38.753Z,2.70
2023-05-10T22:40:06.043Z,2.72
2023-05-10T22:42:33.572Z,1.20
2023-05-10T22:45:00.572Z,2.25
2023-05-10T22:47:27.432Z,2.58
2023-05-10T22:49:55.349Z,3.05
2023-05-10T22:52:22.132Z,2.22
2023-05-10T22:54:48.977Z,4.05
2023-05-10T22:57:16.400Z,1.60
2023-05-10T22:59:43.279Z,2.88
2023-05-10T23:02:10.236Z,1.55
2023-05-10T23:04:37.173Z,2.50
2023-05-10T23:07:04.039Z,3.25
2023-05-10T23:09:30.897Z,2.80
2023-05-10T23:11:57.677Z,3.95
2023-05-10T23:14:24.536Z,2.47
2023-05-10T23:16:54.089Z,2.55
2023-05-10T23:19:20.977Z,3.05
2023-05-10T23:21:47.811Z,2.63
2023-05-10T23:24:14.650Z,6.80
2023-05-10T23:26:43.507Z,3.00
2023-05-10T23:29:10.308Z,3.83
2023-05-10T23:31:37.279Z,2.47
2023-05-10T23:34:04.360Z,2.15
2023-05-10T23:36:31.966Z,2.33
2023-05-10T23:38:58.736Z,4.45
2023-05-10T23:41:26.473Z,4.45
2023-05-10T23:43:53.330Z,4.57
2023-05-10T23:46:20.281Z,3.15
2023-05-10T23:48:47.074Z,2.80
2023-05-10T23:51:13.875Z,3.42
2023-05-10T23:53:40.684Z,3.58
2023-05-10T23:56:07.849Z,3.70
2023-05-10T23:58:35.174Z,4.35
